Time;durP1;ratioP1;P1;durP2;ratioP2;P2;SDS_P1;SDS_P2;PMS_P1;PMS_P2;Temp;Humidity;BMP_temperature;BMP_pressure;BME280_temperature;BME280_humidity;BME280_pressure;Samples;Min_cycle;Max_cycle;Signal;HPM_P1;HPM_P2
2023/07/07 00:01:24;;;;;;;15.32;12.35;;;;;;;21.04;nan;100506.75;4962383;28;20023;-72
2023/07/07 00:03:49;;;;;;;17.05;12.23;;;;;;;21.02;nan;100514.31;4955976;28;20041;-71
2023/07/07 00:06:15;;;;;;;16.83;11.75;;;;;;;21.01;nan;100510.03;4972278;28;20479;-72
2023/07/07 00:08:41;;;;;;;15.77;12.10;;;;;;;21.01;nan;100510.03;4971033;28;20035;-72
2023/07/07 00:11:06;;;;;;;19.10;12.60;;;;;;;20.98;nan;100517.84;4975471;28;20437;-71
2023/07/07 00:13:32;;;;;;;18.40;12.98;;;;;;;20.94;nan;100520.31;4977554;28;20042;-72
2023/07/07 00:16:01;;;;;;;17.58;12.85;;;;;;;20.90;nan;100513.97;4970159;28;20031;-71
2023/07/07 00:18:27;;;;;;;18.70;13.15;;;;;;;20.86;nan;100520.97;4962906;28;20130;-71
2023/07/07 00:20:54;;;;;;;21.45;14.18;;;;;;;20.93;nan;100536.69;4972669;28;20145;-71
2023/07/07 00:23:20;;;;;;;21.77;14.82;;;;;;;20.84;nan;100527.72;4969835;28;20019;-71
2023/07/07 00:25:59;;;;;;;21.55;13.55;;;;;;;20.88;nan;100540.22;4974207;28;20033;-72
2023/07/07 00:28:24;;;;;;;18.63;13.55;;;;;;;20.76;nan;100539.88;4968469;28;20031;-72
2023/07/07 00:30:49;;;;;;;20.73;14.13;;;;;;;20.59;nan;100535.00;4969746;28;20381;-73
2023/07/07 00:33:15;;;;;;;18.77;14.02;;;;;;;20.66;nan;100542.66;4962661;28;20537;-71
2023/07/07 00:35:48;;;;;;;18.17;14.48;;;;;;;20.59;nan;100541.16;4973769;28;20051;-69
2023/07/07 00:38:14;;;;;;;20.35;14.98;;;;;;;20.60;nan;100544.63;4975818;28;20038;-71
2023/07/07 00:40:39;;;;;;;18.58;13.52;;;;;;;20.54;nan;100535.03;4974315;28;20034;-72
2023/07/07 00:43:12;;;;;;;21.55;13.35;;;;;;;20.45;nan;100532.22;4969288;28;20050;-72
2023/07/07 00:45:38;;;;;;;19.08;13.95;;;;;;;20.40;nan;100534.97;4971787;28;20054;-71
2023/07/07 00:48:06;;;;;;;21.42;13.43;;;;;;;20.36;nan;100518.69;4958453;28;20022;-72
2023/07/07 00:50:44;;;;;;;21.10;13.02;;;;;;;20.49;nan;100543.91;4973668;28;20026;-72
2023/07/07 00:53:09;;;;;;;18.42;13.27;;;;;;;20.40;nan;100532.28;4957117;28;20393;-71
2023/07/07 00:55:43;;;;;;;20.35;13.38;;;;;;;20.34;nan;100534.22;4971792;28;20039;-72
2023/07/07 00:58:13;;;;;;;17.08;12.80;;;;;;;20.34;nan;100533.44;4945343;28;20030;-73
2023/07/07 01:00:41;;;;;;;18.38;13.68;;;;;;;20.35;nan;100543.03;4968608;28;20484;-71
2023/07/07 01:03:19;;;;;;;19.67;13.50;;;;;;;20.30;nan;100546.56;4948520;28;20030;-71
2023/07/07 01:05:46;;;;;;;17.58;13.18;;;;;;;20.16;nan;100526.94;4967379;28;20174;-71
2023/07/07 01:08:11;;;;;;;17.98;13.15;;;;;;;20.18;nan;100547.00;4969998;28;20511;-72
2023/07/07 01:10:37;;;;;;;21.77;13.77;;;;;;;20.25;nan;100553.84;4968194;28;20027;-71
2023/07/07 01:13:04;;;;;;;22.40;13.80;;;;;;;20.21;nan;100552.81;4968328;28;20174;-71
2023/07/07 01:15:37;;;;;;;22.25;14.10;;;;;;;20.16;nan;100549.16;4968415;28;20073;-71
2023/07/07 01:18:40;;;;;;;25.13;14.70;;;;;;;20.15;nan;100557.44;4952261;28;20065;-71
2023/07/07 01:21:13;;;;;;;21.48;14.70;;;;;;;20.09;nan;100547.91;4968433;28;20161;-71
2023/07/07 01:24:24;;;;;;;25.50;14.80;;;;;;;20.16;nan;100559.03;4970107;28;20026;-72
2023/07/07 01:27:16;;;;;;;24.25;14.95;;;;;;;20.12;nan;100566.84;4914766;29;20062;-71
2023/07/07 01:29:57;;;;;;;21.33;14.63;;;;;;;20.07;nan;100564.22;4912458;29;20067;-72
2023/07/07 01:32:27;;;;;;;24.73;16.27;;;;;;;20.05;nan;100562.91;4910161;29;20581;-72
2023/07/07 01:34:58;;;;;;;21.98;15.65;;;;;;;20.01;nan;100562.69;4912929;29;20607;-72
2023/07/07 01:37:24;;;;;;;26.40;16.58;;;;;;;19.93;nan;100560.63;4912305;29;20052;-72
2023/07/07 01:39:51;;;;;;;23.52;16.00;;;;;;;19.88;nan;100550.00;4911962;29;20733;-71
2023/07/07 01:42:25;;;;;;;25.27;16.70;;;;;;;19.86;nan;100558.28;4910248;29;20099;-71
2023/07/07 01:45:03;;;;;;;22.92;16.30;;;;;;;19.88;nan;100558.81;4894449;29;20039;-72
2023/07/07 01:47:34;;;;;;;25.50;17.52;;;;;;;19.84;nan;100556.97;4914585;29;20039;-72
2023/07/07 01:50:12;;;;;;;23.77;17.13;;;;;;;19.79;nan;100554.38;4912744;29;20040;-72
2023/07/07 01:52:44;;;;;;;25.58;17.25;;;;;;;19.75;nan;100554.94;4909948;29;20040;-71
2023/07/07 01:55:13;;;;;;;22.35;16.35;;;;;;;19.68;nan;100546.47;4916474;29;20027;-71
2023/07/07 01:57:41;;;;;;;28.65;17.65;;;;;;;19.65;nan;100554.19;4913390;29;20589;-71
2023/07/07 02:00:08;;;;;;;26.77;16.98;;;;;;;19.64;nan;100549.94;4916411;29;20047;-71
2023/07/07 02:02:34;;;;;;;26.40;17.48;;;;;;;19.48;nan;100531.38;4935590;28;20037;-68
2023/07/07 02:04:59;;;;;;;25.25;16.42;;;;;;;19.38;nan;100511.97;4957842;28;20027;-69
2023/07/07 02:07:24;;;;;;;25.58;17.02;;;;;;;19.49;nan;100534.81;4952159;28;20038;-68
2023/07/07 02:09:50;;;;;;;25.42;16.30;;;;;;;19.49;nan;100545.50;4974628;28;20034;-68
2023/07/07 02:12:15;;;;;;;23.35;15.60;;;;;;;19.45;nan;100539.94;4974723;28;20053;-68
2023/07/07 02:14:40;;;;;;;23.55;15.63;;;;;;;19.48;nan;100549.28;4967142;28;20042;-69
2023/07/07 02:17:06;;;;;;;21.20;14.63;;;;;;;19.53;nan;100562.56;4970248;28;20408;-68
2023/07/07 02:19:31;;;;;;;24.35;15.60;;;;;;;19.49;nan;100566.88;4974899;28;20019;-71
2023/07/07 02:21:57;;;;;;;24.17;14.85;;;;;;;19.40;nan;100561.34;4975349;28;20109;-73
2023/07/07 02:24:22;;;;;;;25.27;15.48;;;;;;;19.41;nan;100572.84;4962769;28;20030;-72
2023/07/07 02:26:49;;;;;;;22.75;14.90;;;;;;;19.34;nan;100559.78;4978167;28;20418;-72
2023/07/07 02:29:15;;;;;;;22.42;14.00;;;;;;;19.31;nan;100557.69;4976134;28;20023;-71
2023/07/07 02:31:41;;;;;;;22.10;14.23;;;;;;;19.26;nan;100563.06;4982263;28;20523;-71
2023/07/07 02:34:06;;;;;;;20.63;13.90;;;;;;;19.24;nan;100559.88;4972379;28;20035;-69
2023/07/07 02:36:31;;;;;;;25.20;15.10;;;;;;;19.22;nan;100554.81;4960076;28;20022;-67
2023/07/07 02:38:57;;;;;;;20.27;13.38;;;;;;;19.28;nan;100561.72;4970579;28;20089;-69
2023/07/07 02:41:23;;;;;;;20.02;13.40;;;;;;;19.17;nan;100551.41;4974019;28;20073;-73
2023/07/07 02:43:48;;;;;;;19.52;13.45;;;;;;;19.12;nan;100557.56;4976958;28;20025;-72
2023/07/07 02:46:13;;;;;;;19.95;12.45;;;;;;;19.08;nan;100556.50;4975187;28;20018;-72
2023/07/07 02:48:39;;;;;;;21.90;13.35;;;;;;;19.06;nan;100562.16;4974527;28;20062;-72
2023/07/07 02:51:06;;;;;;;19.90;13.05;;;;;;;19.06;nan;100558.69;4953824;28;20059;-69
2023/07/07 02:53:36;;;;;;;19.05;12.15;;;;;;;18.94;nan;100553.69;4968549;28;20039;-68
2023/07/07 02:56:03;;;;;;;17.88;12.68;;;;;;;18.96;nan;100558.72;4988947;28;20031;-72
2023/07/07 02:58:28;;;;;;;18.08;13.10;;;;;;;18.95;nan;100573.16;4975065;28;20023;-71
2023/07/07 03:01:09;;;;;;;18.58;12.25;;;;;;;18.87;nan;100570.00;4975288;28;20026;-72
2023/07/07 03:03:34;;;;;;;19.42;12.02;;;;;;;18.95;nan;100586.50;4958032;28;20023;-70
2023/07/07 03:06:06;;;;;;;18.13;12.18;;;;;;;18.88;nan;100571.59;4986549;28;20550;-71
2023/07/07 03:08:31;;;;;;;20.50;12.18;;;;;;;18.90;nan;100568.66;4969476;28;20043;-72
2023/07/07 03:10:57;;;;;;;18.27;12.00;;;;;;;18.89;nan;100577.72;4971248;28;20034;-70
2023/07/07 03:13:22;;;;;;;17.92;12.32;;;;;;;18.88;nan;100576.13;4954258;28;20106;-71
2023/07/07 03:15:47;;;;;;;19.02;11.73;;;;;;;18.81;nan;100572.97;4972642;28;20039;-71
2023/07/07 03:18:14;;;;;;;18.90;12.23;;;;;;;18.87;nan;100571.88;4956543;28;20535;-71
2023/07/07 03:20:48;;;;;;;21.67;11.23;;;;;;;18.87;nan;100578.00;4971994;28;20041;-69
2023/07/07 03:23:14;;;;;;;20.75;10.77;;;;;;;18.81;nan;100567.63;4973615;28;20026;-69
2023/07/07 03:25:40;;;;;;;13.65;10.30;;;;;;;18.85;nan;100585.50;4974368;28;20027;-69
2023/07/07 03:28:05;;;;;;;12.32;9.43;;;;;;;18.82;nan;100585.22;4970731;28;20034;-69
2023/07/07 03:30:31;;;;;;;16.35;9.68;;;;;;;18.87;nan;100583.34;4973809;28;20582;-70
2023/07/07 03:32:56;;;;;;;15.43;9.65;;;;;;;18.69;nan;100560.72;4972380;28;20697;-70
2023/07/07 03:35:22;;;;;;;12.95;8.65;;;;;;;18.84;nan;100577.75;4975738;28;20035;-69
2023/07/07 03:37:47;;;;;;;18.73;8.82;;;;;;;18.79;nan;100583.13;4953641;28;20030;-68
2023/07/07 03:40:16;;;;;;;20.75;9.02;;;;;;;18.77;nan;100578.06;4959063;28;20436;-71
2023/07/07 03:42:41;;;;;;;14.43;8.60;;;;;;;18.74;nan;100573.25;4971508;28;20030;-71
2023/07/07 03:45:07;;;;;;;11.73;7.68;;;;;;;18.80;nan;100577.50;4971716;28;20357;-73
2023/07/07 03:47:33;;;;;;;13.02;8.45;;;;;;;18.84;nan;100581.25;4973537;28;20037;-72
2023/07/07 03:49:59;;;;;;;15.18;7.85;;;;;;;18.73;nan;100555.66;4972027;28;20034;-72
2023/07/07 03:52:25;;;;;;;14.52;7.72;;;;;;;18.80;nan;100574.84;4970828;28;20027;-73
2023/07/07 03:54:50;;;;;;;17.42;7.75;;;;;;;18.76;nan;100571.13;4970187;28;20606;-73
2023/07/07 03:57:15;;;;;;;14.07;7.43;;;;;;;18.82;nan;100569.22;4972372;28;20472;-72
2023/07/07 03:59:41;;;;;;;14.82;8.30;;;;;;;18.87;nan;100575.34;4972370;28;20094;-73
2023/07/07 04:02:08;;;;;;;13.20;6.93;;;;;;;18.87;nan;100572.66;4973251;28;20027;-71
2023/07/07 04:04:33;;;;;;;18.00;7.40;;;;;;;18.83;nan;100560.94;4970083;28;20026;-70
2023/07/07 04:06:59;;;;;;;12.07;7.55;;;;;;;18.86;nan;100575.59;4969997;28;20034;-73
2023/07/07 04:09:25;;;;;;;13.52;7.53;;;;;;;18.82;nan;100563.88;4968737;28;20034;-74
2023/07/07 04:11:51;;;;;;;11.52;6.85;;;;;;;18.87;nan;100571.88;4971864;28;20026;-74
2023/07/07 04:14:18;;;;;;;22.88;7.55;;;;;;;19.04;nan;100592.88;4971669;28;20050;-74
2023/07/07 04:16:44;;;;;;;11.43;7.43;;;;;;;19.02;nan;100585.13;4966288;28;20030;-73
2023/07/07 04:19:10;;;;;;;16.13;6.97;;;;;;;19.03;nan;100583.25;4971751;28;20086;-73
2023/07/07 04:21:35;;;;;;;11.43;6.72;;;;;;;19.05;nan;100592.56;4975035;28;20645;-73
2023/07/07 04:24:02;;;;;;;14.43;7.05;;;;;;;19.09;nan;100585.59;4976171;28;20117;-74
2023/07/07 04:26:30;;;;;;;15.70;7.57;;;;;;;19.10;nan;100584.53;4973402;28;20594;-73
2023/07/07 04:28:58;;;;;;;17.30;7.38;;;;;;;19.10;nan;100575.72;4972170;28;20123;-74
2023/07/07 04:31:25;;;;;;;11.10;7.53;;;;;;;19.16;nan;100587.19;4971195;28;20175;-74
2023/07/07 04:33:50;;;;;;;10.50;7.35;;;;;;;19.16;nan;100587.97;4957047;28;20097;-74
2023/07/07 04:36:16;;;;;;;15.40;7.00;;;;;;;19.17;nan;100586.88;4958666;28;20031;-70
2023/07/07 04:38:42;;;;;;;10.40;6.97;;;;;;;19.11;nan;100577.34;4969573;28;20105;-74
2023/07/07 04:41:15;;;;;;;15.15;7.13;;;;;;;19.16;nan;100577.28;4971361;28;20027;-73
2023/07/07 04:43:43;;;;;;;11.82;6.60;;;;;;;19.18;nan;100590.34;4961678;28;20183;-70
2023/07/07 04:46:11;;;;;;;16.20;7.60;;;;;;;19.24;nan;100603.38;4966810;28;20512;-71
2023/07/07 04:48:37;;;;;;;16.17;6.88;;;;;;;19.31;nan;100606.53;4973999;28;20038;-71
2023/07/07 04:51:06;;;;;;;17.05;7.13;;;;;;;19.25;nan;100594.31;4973540;28;20385;-71
2023/07/07 04:53:32;;;;;;;9.45;6.82;;;;;;;19.40;nan;100612.09;4978237;28;20031;-73
2023/07/07 04:55:59;;;;;;;10.13;7.40;;;;;;;19.20;nan;100586.34;4967233;28;20031;-72
2023/07/07 04:58:25;;;;;;;14.48;7.38;;;;;;;19.39;nan;100609.69;4969330;28;20508;-71
2023/07/07 05:01:12;;;;;;;12.35;6.80;;;;;;;19.52;nan;100617.88;4967301;28;20026;-71
2023/07/07 05:03:39;;;;;;;15.48;6.97;;;;;;;19.56;nan;100615.44;4969584;28;20407;-70
2023/07/07 05:06:05;;;;;;;11.05;6.53;;;;;;;19.63;nan;100626.59;4971180;28;20023;-71
2023/07/07 05:08:38;;;;;;;10.43;6.63;;;;;;;19.72;nan;100632.16;4964628;28;20031;-72
2023/07/07 05:11:05;;;;;;;12.48;6.93;;;;;;;19.71;nan;100622.56;4963173;28;20023;-71
2023/07/07 05:13:31;;;;;;;11.20;6.90;;;;;;;19.71;nan;100630.59;4970066;28;20038;-73
2023/07/07 05:16:10;;;;;;;13.07;6.80;;;;;;;19.64;nan;100614.84;4969590;28;20136;-73
2023/07/07 05:18:37;;;;;;;11.60;6.57;;;;;;;19.77;nan;100638.25;4960053;28;20523;-73
2023/07/07 05:21:10;;;;;;;17.73;7.07;;;;;;;19.76;nan;100630.53;4950556;28;20038;-73
2023/07/07 05:23:37;;;;;;;11.38;6.38;;;;;;;19.83;nan;100643.59;4968239;28;20151;-74
2023/07/07 05:26:02;;;;;;;13.48;6.20;;;;;;;19.87;nan;100642.75;4957230;28;20042;-74
2023/07/07 05:28:28;;;;;;;10.40;6.20;;;;;;;19.96;nan;100642.91;4951611;28;20436;-73
2023/07/07 05:30:53;;;;;;;10.15;6.50;;;;;;;20.05;nan;100635.88;4967247;28;20093;-73
2023/07/07 05:33:20;;;;;;;10.70;6.50;;;;;;;20.06;nan;100634.00;4966460;28;20038;-71
2023/07/07 05:35:50;;;;;;;16.17;6.90;;;;;;;20.11;nan;100629.44;4969498;28;20026;-72
2023/07/07 05:38:17;;;;;;;16.23;6.43;;;;;;;20.14;nan;100631.53;4969293;28;20034;-71
2023/07/07 05:40:45;;;;;;;13.40;6.35;;;;;;;20.20;nan;100634.94;4969223;28;20118;-71
2023/07/07 05:43:14;;;;;;;12.13;7.15;;;;;;;20.21;nan;100625.84;4965701;28;20030;-68
2023/07/07 05:45:40;;;;;;;;;;;;;;;20.36;nan;100638.25;4969183;28;20037;-72
2023/07/07 05:48:06;;;;;;;11.70;6.68;;;;;;;20.35;nan;100625.94;4969351;28;20018;-71
2023/07/07 05:50:32;;;;;;;18.63;6.90;;;;;;;20.55;nan;100652.50;4968425;28;20077;-72
2023/07/07 05:52:58;;;;;;;17.88;7.05;;;;;;;20.56;nan;100630.00;4955045;28;20074;-73
2023/07/07 05:55:34;;;;;;;10.35;6.07;;;;;;;20.67;nan;100627.22;4968230;28;20058;-71
2023/07/07 05:58:01;;;;;;;10.52;6.28;;;;;;;20.82;nan;100632.38;4967203;28;20484;-71
2023/07/07 06:00:27;;;;;;;9.60;6.10;;;;;;;20.94;nan;100642.66;4972414;28;20038;-72
2023/07/07 06:02:57;;;;;;;9.68;6.13;;;;;;;20.92;nan;100634.91;4944892;28;20514;-73
2023/07/07 06:05:23;;;;;;;9.90;6.10;;;;;;;21.05;nan;100644.13;4969110;28;20030;-71
2023/07/07 06:07:50;;;;;;;9.77;6.20;;;;;;;21.10;nan;100635.22;4967204;28;20559;-71
2023/07/07 06:10:15;;;;;;;12.35;6.13;;;;;;;21.22;nan;100632.91;4973057;28;20034;-71
2023/07/07 06:12:41;;;;;;;14.35;6.75;;;;;;;21.34;nan;100643.97;4962319;28;20516;-71
2023/07/07 06:15:07;;;;;;;9.02;6.18;;;;;;;21.39;nan;100625.16;4968778;28;20057;-73
2023/07/07 06:17:33;;;;;;;34.20;18.52;;;;;;;21.58;nan;100637.75;4969736;28;20090;-71
2023/07/07 06:19:58;;;;;;;26.15;13.20;;;;;;;21.73;nan;100642.06;4970397;28;20126;-71
2023/07/07 06:22:24;;;;;;;30.42;12.77;;;;;;;21.84;nan;100640.81;4964103;28;20086;-71
2023/07/07 06:24:51;;;;;;;12.57;7.18;;;;;;;21.95;nan;100649.44;4966697;28;20093;-70
2023/07/07 06:27:16;;;;;;;42.88;15.30;;;;;;;22.02;nan;100639.94;4969054;28;20015;-72
2023/07/07 06:29:41;;;;;;;16.30;8.57;;;;;;;22.14;nan;100652.84;4971058;28;20121;-73
2023/07/07 06:32:08;;;;;;;10.63;7.32;;;;;;;22.16;nan;100644.53;4972835;28;20073;-73
2023/07/07 06:34:33;;;;;;;12.13;7.25;;;;;;;22.20;nan;100638.31;4965090;28;20112;-72
2023/07/07 06:36:59;;;;;;;13.70;6.25;;;;;;;22.28;nan;100634.91;4947577;28;20027;-73
2023/07/07 06:39:26;;;;;;;11.05;6.32;;;;;;;22.46;nan;100635.94;4962023;28;20469;-72
2023/07/07 06:41:52;;;;;;;15.68;6.63;;;;;;;22.60;nan;100648.53;4971540;28;20027;-69
2023/07/07 06:44:18;;;;;;;16.50;6.60;;;;;;;22.69;nan;100650.22;4949475;28;20077;-70
2023/07/07 06:46:43;;;;;;;12.98;6.60;;;;;;;22.85;nan;100647.22;4968389;28;20030;-69
2023/07/07 06:49:08;;;;;;;13.07;7.05;;;;;;;22.82;nan;100637.88;4968204;28;20382;-70
2023/07/07 06:51:34;;;;;;;8.13;5.78;;;;;;;23.01;nan;100650.38;4967598;28;20030;-69
2023/07/07 06:53:59;;;;;;;11.60;6.50;;;;;;;23.18;nan;100658.63;4950453;28;20030;-70
2023/07/07 06:56:24;;;;;;;13.43;6.72;;;;;;;23.26;nan;100659.78;4959184;28;20037;-71
2023/07/07 06:58:50;;;;;;;13.48;6.90;;;;;;;23.35;nan;100663.34;4971662;28;21331;-71
2023/07/07 07:01:16;;;;;;;17.60;7.05;;;;;;;23.31;nan;100657.75;4969939;28;20023;-72
2023/07/07 07:03:42;;;;;;;15.25;6.47;;;;;;;23.37;nan;100661.16;4975808;28;20071;-71
2023/07/07 07:06:09;;;;;;;16.38;6.25;;;;;;;23.43;nan;100661.81;4972462;28;20062;-70
2023/07/07 07:08:35;;;;;;;12.88;5.75;;;;;;;23.54;nan;100665.84;4966439;28;20097;-71
2023/07/07 07:11:00;;;;;;;11.20;6.13;;;;;;;23.59;nan;100651.50;4972826;28;20039;-71
2023/07/07 07:13:26;;;;;;;11.93;5.80;;;;;;;23.74;nan;100664.59;4952796;28;20477;-71
2023/07/07 07:15:51;;;;;;;9.10;6.18;;;;;;;23.81;nan;100670.31;4970101;28;20041;-71
2023/07/07 07:18:17;;;;;;;9.05;5.85;;;;;;;23.74;nan;100668.06;4970917;28;20026;-71
2023/07/07 07:20:47;;;;;;;10.00;5.22;;;;;;;23.80;nan;100678.69;4971481;28;20481;-71
2023/07/07 07:23:12;;;;;;;10.35;5.68;;;;;;;23.84;nan;100674.28;4983514;28;20015;-69
2023/07/07 07:25:37;;;;;;;13.40;5.72;;;;;;;23.85;nan;100678.56;4977895;28;20031;-71
2023/07/07 07:28:03;;;;;;;16.20;5.97;;;;;;;23.80;nan;100662.56;4971614;28;20034;-72
2023/07/07 07:30:29;;;;;;;8.43;5.35;;;;;;;24.02;nan;100686.75;4970198;28;20038;-71
2023/07/07 07:32:54;;;;;;;12.57;5.80;;;;;;;24.03;nan;100688.31;4970018;28;20504;-70
2023/07/07 07:35:20;;;;;;;7.60;5.35;;;;;;;24.15;nan;100693.13;4973758;28;20129;-69
2023/07/07 07:37:45;;;;;;;9.10;4.82;;;;;;;24.19;nan;100688.72;4970237;28;20024;-69
2023/07/07 07:40:11;;;;;;;8.32;5.00;;;;;;;24.25;nan;100678.63;4971484;28;20019;-70
2023/07/07 07:42:36;;;;;;;8.38;5.38;;;;;;;24.38;nan;100694.69;4953599;28;20030;-72
2023/07/07 07:45:02;;;;;;;9.27;5.22;;;;;;;24.38;nan;100691.97;4968379;28;20037;-72
2023/07/07 07:47:27;;;;;;;7.45;5.10;;;;;;;24.32;nan;100692.41;4971301;28;20366;-72
2023/07/07 07:49:52;;;;;;;10.98;5.35;;;;;;;24.40;nan;100694.38;4946073;28;20038;-72
2023/07/07 07:52:18;;;;;;;11.60;5.30;;;;;;;24.41;nan;100699.44;4953084;28;20026;-71
2023/07/07 07:54:44;;;;;;;6.70;5.18;;;;;;;24.50;nan;100706.78;4968337;28;20050;-70
2023/07/07 07:57:10;;;;;;;7.53;5.07;;;;;;;24.57;nan;100709.81;4970513;28;20393;-70
2023/07/07 07:59:35;;;;;;;12.15;5.75;;;;;;;24.61;nan;100706.19;4961003;28;20766;-70
2023/07/07 08:02:01;;;;;;;7.95;5.20;;;;;;;24.65;nan;100710.97;4953032;28;20477;-70
2023/07/07 08:04:26;;;;;;;9.90;4.70;;;;;;;24.66;nan;100717.91;4959173;28;20037;-70
2023/07/07 08:06:55;;;;;;;8.52;4.93;;;;;;;24.70;nan;100721.59;4969639;28;20019;-71
2023/07/07 08:09:20;;;;;;;15.15;5.30;;;;;;;24.73;nan;100720.94;4971955;28;20027;-70
2023/07/07 08:11:46;;;;;;;9.25;5.70;;;;;;;24.81;nan;100720.97;4948951;28;20038;-71
2023/07/07 08:14:18;;;;;;;8.37;5.30;;;;;;;24.69;nan;100728.88;4969494;28;20047;-71
2023/07/07 08:16:45;;;;;;;6.50;4.40;;;;;;;24.79;nan;100723.19;4971344;28;20304;-73
2023/07/07 08:19:11;;;;;;;9.27;4.57;;;;;;;24.70;nan;100708.13;4974346;28;20026;-69
2023/07/07 08:21:36;;;;;;;5.40;4.38;;;;;;;24.89;nan;100724.81;4973754;28;20031;-72
2023/07/07 08:24:03;;;;;;;8.07;5.15;;;;;;;24.89;nan;100718.63;4976232;28;20441;-71
2023/07/07 08:26:29;;;;;;;8.80;4.85;;;;;;;24.89;nan;100724.00;4956730;28;20439;-71
2023/07/07 08:28:54;;;;;;;9.20;5.13;;;;;;;24.89;nan;100718.63;4973068;28;20077;-71
2023/07/07 08:31:20;;;;;;;10.10;5.28;;;;;;;25.04;nan;100726.25;4951482;28;20062;-71
2023/07/07 08:33:49;;;;;;;8.45;4.90;;;;;;;25.05;nan;100725.16;4970249;28;20039;-71
2023/07/07 08:36:15;;;;;;;7.95;4.47;;;;;;;25.11;nan;100717.72;4970007;28;20030;-72
2023/07/07 08:38:40;;;;;;;8.20;4.80;;;;;;;25.15;nan;100727.53;4955731;28;20027;-71
2023/07/07 08:41:06;;;;;;;8.05;5.10;;;;;;;25.15;nan;100732.94;4972533;28;20073;-72
2023/07/07 08:43:31;;;;;;;10.05;4.78;;;;;;;25.19;nan;100716.97;4967164;28;20022;-72
2023/07/07 08:46:19;;;;;;;7.32;4.57;;;;;;;25.22;nan;100722.50;4953388;28;20061;-70
2023/07/07 08:48:53;;;;;;;10.90;5.00;;;;;;;25.23;nan;100731.38;4972043;28;20062;-71
2023/07/07 08:51:31;;;;;;;6.43;4.63;;;;;;;25.25;nan;100727.25;4967500;28;20034;-71
2023/07/07 08:54:08;;;;;;;10.80;4.53;;;;;;;25.37;nan;100731.25;4968783;28;20042;-70
2023/07/07 08:56:44;;;;;;;5.95;4.50;;;;;;;25.36;nan;100727.75;4969396;28;20026;-70
2023/07/07 08:59:22;;;;;;;7.18;5.10;;;;;;;25.34;nan;100719.19;4968989;28;20050;-71
2023/07/07 09:02:20;;;;;;;7.05;4.90;;;;;;;25.37;nan;100717.75;4986787;28;20031;-71
2023/07/07 09:05:05;;;;;;;7.20;4.22;;;;;;;25.58;nan;100732.19;4935971;28;20057;-71
2023/07/07 09:08:09;;;;;;;10.20;5.05;;;;;;;25.53;nan;100726.19;4962594;28;20390;-71
2023/07/07 09:11:16;;;;;;;8.73;5.20;;;;;;;25.74;nan;100715.50;4973697;28;20037;-74
2023/07/07 09:13:45;;;;;;;7.45;4.75;;;;;;;25.74;nan;100724.44;4956220;28;20046;-74
2023/07/07 09:16:21;;;;;;;6.68;4.35;;;;;;;25.74;nan;100729.81;4970147;28;20043;-74
2023/07/07 09:19:04;;;;;;;7.10;4.97;;;;;;;25.82;nan;100728.22;4969250;28;20563;-74
2023/07/07 09:21:32;;;;;;;9.07;4.28;;;;;;;25.86;nan;100730.00;4968559;28;20101;-71
2023/07/07 09:24:07;;;;;;;7.25;4.93;;;;;;;25.87;nan;100711.91;4971132;28;20031;-74
2023/07/07 09:26:34;;;;;;;9.10;4.60;;;;;;;26.02;nan;100719.47;4950962;28;20119;-74
2023/07/07 09:29:07;;;;;;;8.80;4.50;;;;;;;26.00;nan;100724.41;4970689;28;20503;-74
2023/07/07 09:31:43;;;;;;;8.05;4.70;;;;;;;26.01;nan;100709.00;4975050;28;20651;-73
2023/07/07 09:34:11;;;;;;;5.65;4.35;;;;;;;26.05;nan;100707.22;4973871;28;20022;-71
2023/07/07 09:37:13;;;;;;;8.43;4.53;;;;;;;26.04;nan;100725.34;4962858;28;20026;-71
2023/07/07 09:39:38;;;;;;;7.65;4.70;;;;;;;26.08;nan;100710.09;4972259;28;20038;-71
2023/07/07 09:42:22;;;;;;;7.70;4.32;;;;;;;26.20;nan;100708.66;4975312;28;20110;-71
2023/07/07 09:45:11;;;;;;;8.30;4.60;;;;;;;26.33;nan;100707.63;4974536;28;20088;-71
2023/07/07 09:48:10;;;;;;;8.43;4.53;;;;;;;26.34;nan;100698.44;4967619;28;20034;-70
2023/07/07 09:50:44;;;;;;;6.15;4.35;;;;;;;26.38;nan;100710.16;4969948;28;20038;-71
2023/07/07 09:53:40;;;;;;;11.93;4.40;;;;;;;26.33;nan;100707.63;4959483;28;20034;-72
2023/07/07 09:56:12;;;;;;;9.68;4.22;;;;;;;26.46;nan;100706.63;4963816;28;20053;-71
2023/07/07 09:59:02;;;;;;;6.38;4.10;;;;;;;26.33;nan;100701.44;4959402;28;20038;-72
2023/07/07 10:01:32;;;;;;;7.90;3.72;;;;;;;26.34;nan;100698.44;4990706;28;20025;-72
2023/07/07 10:03:59;;;;;;;8.68;4.10;;;;;;;26.33;nan;100694.13;4974392;28;20022;-72
2023/07/07 10:06:35;;;;;;;7.22;4.70;;;;;;;26.42;nan;100707.59;4971650;28;20035;-72
2023/07/07 10:09:03;;;;;;;9.05;4.35;;;;;;;26.51;nan;100701.03;4955896;28;20034;-71
2023/07/07 10:11:35;;;;;;;6.38;4.07;;;;;;;26.50;nan;100710.25;4970145;28;20133;-71
2023/07/07 10:14:04;;;;;;;8.43;4.15;;;;;;;26.40;nan;100699.81;4948256;28;20053;-71
2023/07/07 10:16:39;;;;;;;6.43;4.20;;;;;;;26.45;nan;100701.53;4954848;28;20135;-71
2023/07/07 10:19:08;;;;;;;4.88;3.97;;;;;;;26.50;nan;100702.13;4973950;28;20052;-70
2023/07/07 10:21:33;;;;;;;6.15;4.45;;;;;;;26.60;nan;100708.31;4971197;28;20055;-71
2023/07/07 10:23:59;;;;;;;8.00;4.65;;;;;;;26.65;nan;100695.44;4960245;28;20042;-69
2023/07/07 10:26:25;;;;;;;6.53;4.20;;;;;;;26.75;nan;100710.50;4969040;28;20042;-73
2023/07/07 10:28:54;;;;;;;7.35;4.88;;;;;;;26.56;nan;100704.72;4972435;28;20514;-73
2023/07/07 10:31:19;;;;;;;9.25;4.65;;;;;;;26.50;nan;100690.56;4974306;28;20023;-72
2023/07/07 10:33:57;;;;;;;7.55;4.40;;;;;;;26.63;nan;100705.78;4972507;28;20154;-73
2023/07/07 10:36:33;;;;;;;9.30;4.38;;;;;;;26.68;nan;100702.88;4971206;28;20042;-73
2023/07/07 10:38:59;;;;;;;11.98;5.15;;;;;;;26.52;nan;100686.41;4953999;28;20381;-74
2023/07/07 10:41:26;;;;;;;8.88;4.40;;;;;;;26.62;nan;100695.28;4974025;28;20039;-73
2023/07/07 10:43:53;;;;;;;7.28;4.30;;;;;;;26.57;nan;100679.28;4973496;28;20035;-73
2023/07/07 10:46:18;;;;;;;8.68;4.28;;;;;;;26.63;nan;100694.97;4969031;28;20102;-73
2023/07/07 10:48:46;;;;;;;7.35;4.65;;;;;;;26.69;nan;100688.25;4970828;28;20125;-73
2023/07/07 10:51:21;;;;;;;8.48;4.40;;;;;;;26.76;nan;100689.66;4970840;28;20022;-72
2023/07/07 10:53:49;;;;;;;5.97;4.00;;;;;;;26.77;nan;100688.53;4965453;28;20035;-73
2023/07/07 10:56:21;;;;;;;8.40;4.55;;;;;;;26.91;nan;100684.50;4967976;28;20085;-72
2023/07/07 10:59:01;;;;;;;9.38;4.82;;;;;;;26.95;nan;100685.41;4970803;28;20062;-73
2023/07/07 11:01:39;;;;;;;7.18;4.45;;;;;;;26.88;nan;100684.34;4959089;28;20030;-75
2023/07/07 11:04:20;;;;;;;7.10;4.28;;;;;;;26.85;nan;100687.69;4962552;28;20032;-73
2023/07/07 11:06:59;;;;;;;5.30;3.92;;;;;;;26.80;nan;100685.19;4968371;28;20027;-75
2023/07/07 11:09:40;;;;;;;6.28;4.10;;;;;;;26.76;nan;100684.25;4961703;28;20757;-74
2023/07/07 11:12:20;;;;;;;7.70;4.68;;;;;;;26.73;nan;100680.31;4957811;28;20034;-77
2023/07/07 11:15:01;;;;;;;7.72;4.22;;;;;;;26.81;nan;100682.16;4969592;28;20047;-73
2023/07/07 11:17:44;;;;;;;4.97;3.97;;;;;;;26.82;nan;100669.44;4967884;28;20030;-74
2023/07/07 11:20:34;;;;;;;7.60;4.53;;;;;;;26.80;nan;100667.06;4969620;28;20591;-73
2023/07/07 11:22:59;;;;;;;8.10;3.90;;;;;;;26.80;nan;100658.19;4969620;28;20389;-73
2023/07/07 11:25:34;;;;;;;10.27;4.23;;;;;;;26.79;nan;100656.56;4965450;28;20024;-70
2023/07/07 11:28:17;;;;;;;7.57;4.22;;;;;;;26.84;nan;100659.09;4966172;28;20319;-73
2023/07/07 11:30:43;;;;;;;5.72;3.70;;;;;;;26.85;nan;100653.34;4964829;28;20030;-70
2023/07/07 11:33:53;;;;;;;5.57;3.80;;;;;;;26.93;nan;100646.31;4967884;28;20504;-71
2023/07/07 11:36:45;;;;;;;5.70;4.32;;;;;;;26.91;nan;100652.06;4895498;29;20276;-73
2023/07/07 11:39:23;;;;;;;7.38;4.07;;;;;;;26.98;nan;100648.03;4893797;29;20176;-73
2023/07/07 11:42:11;;;;;;;7.68;4.50;;;;;;;26.97;nan;100641.03;4891890;29;20040;-73
2023/07/07 11:44:39;;;;;;;;;;;;;;;27.02;nan;100644.34;4895537;29;20079;-70
2023/07/07 11:47:11;;;;;;;8.88;4.57;;;;;;;27.07;nan;100643.34;4896981;29;19919;-69